createdAt,value
2022-11-12T00:01:05.428Z,101441.91
2022-11-12T00:03:34.408Z,101435.44
2022-11-12T00:06:02.030Z,101447.63
2022-11-12T00:08:30.054Z,101447.63
2022-11-12T00:10:58.077Z,101455.78
2022-11-12T00:13:25.688Z,101452.13
2022-11-12T00:15:53.319Z,101446.00
2022-11-12T00:18:21.219Z,101449.88
2022-11-12T00:20:50.161Z,101454.75
2022-11-12T00:23:17.777Z,101451.47
2022-11-12T00:25:45.596Z,101446.41
2022-11-12T00:28:13.188Z,101442.88
2022-11-12T00:30:42.241Z,101452.03
2022-11-12T00:33:09.853Z,101444.34
2022-11-12T00:35:37.674Z,101447.53
2022-11-12T00:38:06.730Z,101459.16
2022-11-12T00:40:34.761Z,101454.09
2022-11-12T00:43:02.333Z,101450.16
2022-11-12T00:45:30.925Z,101449.91
2022-11-12T00:47:58.480Z,101448.75
2022-11-12T00:50:26.103Z,101454.28
2022-11-12T00:52:54.330Z,101458.88
2022-11-12T00:55:23.203Z,101461.88
2022-11-12T00:57:51.845Z,101468.53
2022-11-12T01:00:20.460Z,101457.53
2022-11-12T01:02:51.281Z,101460.09
2022-11-12T01:05:20.067Z,101449.19
2022-11-12T01:07:53.164Z,101455.28
2022-11-12T01:10:24.228Z,101459.97
2022-11-12T01:12:52.016Z,101440.50
2022-11-12T01:15:19.876Z,101452.19
2022-11-12T01:17:47.408Z,101453.31
2022-11-12T01:20:15.215Z,101450.22
2022-11-12T01:22:42.987Z,101442.63
2022-11-12T01:25:10.613Z,101446.06
2022-11-12T01:27:39.584Z,101441.97
2022-11-12T01:30:08.167Z,101455.13
2022-11-12T01:32:37.745Z,101447.03
2022-11-12T01:35:06.605Z,101447.66
2022-11-12T01:37:34.164Z,101442.94
2022-11-12T01:40:01.725Z,101438.06
2022-11-12T01:42:30.839Z,101429.84
2022-11-12T01:44:59.717Z,101426.22
2022-11-12T01:47:31.812Z,101432.09
2022-11-12T01:50:01.608Z,101434.13
2022-11-12T01:52:34.029Z,101434.19
2022-11-12T01:55:06.461Z,101438.09
2022-11-12T01:57:39.137Z,101437.53
2022-11-12T02:00:14.595Z,101436.97
2022-11-12T02:02:47.278Z,101436.25
2022-11-12T02:05:17.466Z,101433.88
2022-11-12T02:07:46.930Z,101426.00
2022-11-12T02:10:16.413Z,101424.22
2022-11-12T02:13:02.540Z,101424.88
2022-11-12T02:15:32.101Z,101421.31
2022-11-12T02:17:59.677Z,101419.72
2022-11-12T02:20:27.340Z,101418.13
2022-11-12T02:22:56.800Z,101414.53
2022-11-12T02:25:27.492Z,101415.16
2022-11-12T02:27:57.049Z,101414.91
2022-11-12T02:30:33.695Z,101415.66
2022-11-12T02:33:01.578Z,101410.75
2022-11-12T02:35:29.147Z,101409.56
2022-11-12T02:37:58.333Z,101408.56
2022-11-12T02:40:26.217Z,101402.88
2022-11-12T02:42:53.793Z,101396.59
2022-11-12T02:45:21.665Z,101397.72
2022-11-12T02:47:49.514Z,101392.75
2022-11-12T02:50:17.489Z,101400.22
2022-11-12T02:52:46.111Z,101399.94
2022-11-12T02:55:15.280Z,101400.78
2022-11-12T02:57:42.955Z,101392.00
2022-11-12T03:00:13.295Z,101390.69
2022-11-12T03:02:43.073Z,101398.38
2022-11-12T03:05:11.839Z,101391.63
2022-11-12T03:07:40.036Z,101401.28
2022-11-12T03:10:08.087Z,101408.28
2022-11-12T03:12:37.265Z,101401.00
2022-11-12T03:15:05.651Z,101402.50
2022-11-12T03:17:35.290Z,101406.34
2022-11-12T03:20:02.961Z,101406.44
2022-11-12T03:22:30.790Z,101408.50
2022-11-12T03:24:58.369Z,101400.00
2022-11-12T03:27:25.936Z,101411.31
2022-11-12T03:29:54.864Z,101407.03
2022-11-12T03:32:22.600Z,101401.50
2022-11-12T03:34:55.167Z,101404.50
2022-11-12T03:37:23.193Z,101404.56
2022-11-12T03:39:50.757Z,101399.16
2022-11-12T03:42:18.392Z,101411.44
2022-11-12T03:44:46.176Z,101403.72
2022-11-12T03:47:15.070Z,101399.44
2022-11-12T03:49:42.656Z,101395.88
2022-11-12T03:52:10.224Z,101396.44
2022-11-12T03:54:37.766Z,101396.66
2022-11-12T03:57:05.428Z,101390.25
2022-11-12T03:59:33.179Z,101385.38
2022-11-12T04:02:00.754Z,101384.72
2022-11-12T04:04:49.994Z,101385.94
2022-11-12T04:07:35.341Z,101386.53
2022-11-12T04:10:02.942Z,101375.91
2022-11-12T04:12:48.353Z,101368.88
2022-11-12T04:15:16.159Z,101380.31
2022-11-12T04:18:01.255Z,101370.19
2022-11-12T04:21:02.314Z,101379.75
2022-11-12T04:23:30.885Z,101380.03
2022-11-12T04:26:16.137Z,101387.53
2022-11-12T04:29:03.921Z,101387.81
2022-11-12T04:31:30.605Z,101381.63
2022-11-12T04:34:18.536Z,101382.03
2022-11-12T04:36:47.765Z,101379.94
2022-11-12T04:39:15.429Z,101382.66
2022-11-12T04:42:00.773Z,101384.25
2022-11-12T04:44:46.147Z,101382.91
2022-11-12T04:47:14.749Z,101377.09
2022-11-12T04:49:43.393Z,101375.25
2022-11-12T04:52:12.461Z,101383.56
2022-11-12T04:54:40.433Z,101384.69
2022-11-12T04:57:08.049Z,101383.75
2022-11-12T04:59:35.745Z,101387.53
2022-11-12T05:02:03.312Z,101384.06
2022-11-12T05:04:33.059Z,101381.44
2022-11-12T05:07:01.097Z,101378.31
2022-11-12T05:09:30.986Z,101387.47
2022-11-12T05:11:58.901Z,101387.28
2022-11-12T05:14:26.546Z,101399.28
2022-11-12T05:16:54.462Z,101393.06
2022-11-12T05:19:22.080Z,101406.59
2022-11-12T05:22:13.904Z,101407.03
2022-11-12T05:24:56.217Z,101400.06
2022-11-12T05:27:23.777Z,101401.13
2022-11-12T05:29:51.512Z,101399.56
2022-11-12T05:32:19.343Z,101395.25
2022-11-12T05:34:47.054Z,101396.09
2022-11-12T05:37:15.292Z,101399.16
2022-11-12T05:39:43.045Z,101395.91
2022-11-12T05:42:13.711Z,101392.88
2022-11-12T05:44:42.037Z,101396.31
2022-11-12T05:47:09.853Z,101395.56
2022-11-12T05:49:37.703Z,101406.38
2022-11-12T05:52:05.607Z,101399.81
2022-11-12T05:54:33.226Z,101400.28
2022-11-12T05:57:00.828Z,101405.97
2022-11-12T05:59:29.891Z,101404.28
2022-11-12T06:01:57.470Z,101398.59
2022-11-12T06:04:26.154Z,101405.13
2022-11-12T06:06:53.724Z,101401.78
2022-11-12T06:09:21.332Z,101413.13
2022-11-12T06:11:48.932Z,101419.97
2022-11-12T06:14:16.608Z,101413.34
2022-11-12T06:16:45.521Z,101423.53
2022-11-12T06:19:13.112Z,101423.31
2022-11-12T06:21:40.752Z,101417.44
2022-11-12T06:24:09.125Z,101422.94
2022-11-12T06:26:38.124Z,101422.59
2022-11-12T06:29:05.782Z,101423.88
2022-11-12T06:31:33.385Z,101438.41
2022-11-12T06:34:03.175Z,101429.56
2022-11-12T06:36:30.837Z,101423.22
2022-11-12T06:38:58.434Z,101426.06
2022-11-12T06:41:26.003Z,101426.00
2022-11-12T06:43:53.561Z,101430.00
2022-11-12T06:46:21.172Z,101423.03
2022-11-12T06:48:48.800Z,101427.03
2022-11-12T06:51:20.563Z,101420.91
2022-11-12T06:53:48.569Z,101421.34
2022-11-12T06:56:16.846Z,101419.03
2022-11-12T06:58:44.721Z,101423.53
2022-11-12T07:01:14.474Z,101419.47
2022-11-12T07:03:43.964Z,101422.63
2022-11-12T07:06:14.429Z,101427.69
2022-11-12T07:08:43.515Z,101429.97
2022-11-12T07:11:11.512Z,101421.22
2022-11-12T07:13:39.294Z,101421.44
2022-11-12T07:16:08.756Z,101425.66
2022-11-12T07:18:36.567Z,101422.63
2022-11-12T07:21:06.720Z,101424.50
2022-11-12T07:23:36.299Z,101424.28
2022-11-12T07:26:07.165Z,101419.22
2022-11-12T07:28:35.137Z,101424.91
2022-11-12T07:31:04.586Z,101419.84
2022-11-12T07:33:33.179Z,101418.38
2022-11-12T07:36:01.658Z,101408.53
2022-11-12T07:38:30.536Z,101410.81
2022-11-12T07:41:02.299Z,101412.19
2022-11-12T07:43:31.968Z,101414.38
2022-11-12T07:46:00.201Z,101410.47
2022-11-12T07:48:28.090Z,101402.91
2022-11-12T07:51:01.649Z,101406.81
2022-11-12T07:53:29.369Z,101408.16
2022-11-12T07:55:58.017Z,101409.50
2022-11-12T07:58:26.650Z,101410.66
2022-11-12T08:00:55.838Z,101412.56
2022-11-12T08:03:24.129Z,101411.38
2022-11-12T08:05:51.818Z,101416.75
2022-11-12T08:08:19.379Z,101416.16
2022-11-12T08:10:46.920Z,101420.78
2022-11-12T08:13:14.789Z,101413.63
2022-11-12T08:15:42.413Z,101427.91
2022-11-12T08:18:11.488Z,101424.91
2022-11-12T08:20:39.025Z,101426.84
2022-11-12T08:23:06.621Z,101421.63
2022-11-12T08:25:34.209Z,101430.03
2022-11-12T08:28:01.892Z,101430.78
2022-11-12T08:30:31.069Z,101433.91
2022-11-12T08:32:59.671Z,101428.81
2022-11-12T08:35:29.398Z,101430.59
2022-11-12T08:38:00.366Z,101435.16
2022-11-12T08:40:28.901Z,101436.84
2022-11-12T08:43:00.396Z,101430.28
2022-11-12T08:45:29.402Z,101431.94
2022-11-12T08:48:00.221Z,101422.91
2022-11-12T08:50:29.942Z,101421.72
2022-11-12T08:53:00.753Z,101436.44
2022-11-12T08:55:28.385Z,101428.50
2022-11-12T08:57:56.123Z,101434.13
2022-11-12T09:00:24.088Z,101436.50
2022-11-12T09:02:51.900Z,101425.84
2022-11-12T09:05:19.472Z,101432.75
2022-11-12T09:07:50.399Z,101441.31
2022-11-12T09:10:18.888Z,101440.84
2022-11-12T09:12:52.685Z,101441.56
2022-11-12T09:15:37.064Z,101444.00
2022-11-12T09:18:08.395Z,101437.81
2022-11-12T09:20:35.996Z,101431.16
2022-11-12T09:23:07.155Z,101433.13
2022-11-12T09:25:34.954Z,101440.63
2022-11-12T09:28:08.209Z,101441.59
2022-11-12T09:30:36.086Z,101445.78
2022-11-12T09:33:03.713Z,101448.66
2022-11-12T09:35:31.474Z,101441.69
2022-11-12T09:38:00.930Z,101442.38
2022-11-12T09:40:41.616Z,101452.66
2022-11-12T09:43:20.202Z,101445.94
2022-11-12T09:46:00.275Z,101449.97
2022-11-12T09:48:40.887Z,101441.31
2022-11-12T09:51:14.435Z,101435.84
2022-11-12T09:53:49.898Z,101437.72
2022-11-12T09:56:21.832Z,101434.66
2022-11-12T09:58:49.639Z,101426.44
2022-11-12T10:01:20.706Z,101433.91
2022-11-12T10:03:57.213Z,101430.13
2022-11-12T10:06:28.939Z,101434.66
2022-11-12T10:09:02.080Z,101430.00
2022-11-12T10:12:15.388Z,101421.84
2022-11-12T10:15:20.515Z,101419.94
2022-11-12T10:17:55.330Z,101420.94
2022-11-12T10:20:27.090Z,101424.41
2022-11-12T10:23:07.575Z,101420.38
2022-11-12T10:25:36.696Z,101420.94
2022-11-12T10:28:17.703Z,101409.78
2022-11-12T10:30:45.825Z,101403.53
2022-11-12T10:33:15.273Z,101407.28
2022-11-12T10:35:42.835Z,101405.22
2022-11-12T10:38:16.706Z,101394.59
2022-11-12T10:40:44.575Z,101397.50
2022-11-12T10:43:24.836Z,101402.53
2022-11-12T10:45:52.744Z,101396.56
2022-11-12T10:48:27.469Z,101400.25
2022-11-12T10:50:55.765Z,101399.06
2022-11-12T10:53:35.186Z,101395.47
2022-11-12T10:56:05.388Z,101397.53
2022-11-12T10:58:35.737Z,101393.13
2022-11-12T11:01:05.168Z,101391.81
2022-11-12T11:03:35.639Z,101392.16
2022-11-12T11:06:06.211Z,101393.72
2022-11-12T11:08:37.822Z,101383.03
2022-11-12T11:11:18.362Z,101382.34
2022-11-12T11:13:51.441Z,101381.13
2022-11-12T11:16:24.751Z,101383.53
2022-11-12T11:18:56.647Z,101378.69
2022-11-12T11:21:51.706Z,101380.06
2022-11-12T11:24:30.776Z,101387.94
2022-11-12T11:27:04.658Z,101386.03
2022-11-12T11:29:48.066Z,101376.66
2022-11-12T11:32:36.060Z,101388.16
2022-11-12T11:35:14.952Z,101373.19
2022-11-12T11:37:58.455Z,101373.31
2022-11-12T11:40:31.201Z,101382.28
2022-11-12T11:43:23.580Z,101382.53
2022-11-12T11:46:11.693Z,101369.13
2022-11-12T11:48:51.806Z,101364.53
2022-11-12T11:51:36.455Z,101366.97
2022-11-12T11:54:19.257Z,101366.72
2022-11-12T11:56:49.954Z,101366.81
2022-11-12T11:59:35.730Z,101366.09
2022-11-12T12:02:29.036Z,101362.97
2022-11-12T12:05:08.958Z,101364.06
2022-11-12T12:07:43.500Z,101361.66
2022-11-12T12:10:21.851Z,101359.09
2022-11-12T12:13:00.915Z,101355.16
2022-11-12T12:15:48.543Z,101348.22
2022-11-12T12:18:30.677Z,101346.69
2022-11-12T12:21:07.184Z,101348.13
2022-11-12T12:23:38.739Z,101353.41
2022-11-12T12:26:13.408Z,101351.03
2022-11-12T12:28:46.281Z,101343.28
2022-11-12T12:31:19.368Z,101333.06
2022-11-12T12:33:53.889Z,101335.59
2022-11-12T12:36:26.608Z,101331.38
2022-11-12T12:39:04.960Z,101327.69
2022-11-12T12:41:40.575Z,101328.66
2022-11-12T12:44:11.353Z,101327.44
2022-11-12T12:46:43.862Z,101335.13
2022-11-12T12:49:17.823Z,101324.97
2022-11-12T12:51:45.773Z,101321.75
2022-11-12T12:54:49.850Z,101317.72
2022-11-12T12:57:32.578Z,101324.22
2022-11-12T13:00:32.925Z,101313.38
2022-11-12T13:03:00.621Z,101319.84
2022-11-12T13:05:32.196Z,101317.22
2022-11-12T13:08:07.110Z,101304.97
2022-11-12T13:10:54.393Z,101306.63
2022-11-12T13:13:32.750Z,101307.16
2022-11-12T13:16:02.253Z,101311.00
2022-11-12T13:18:59.098Z,101310.97
2022-11-12T13:21:28.555Z,101304.16
2022-11-12T13:24:07.881Z,101297.56
2022-11-12T13:26:56.737Z,101302.13
2022-11-12T13:29:47.042Z,101298.28
2022-11-12T13:32:38.008Z,101285.81
2022-11-12T13:35:36.432Z,101291.09
2022-11-12T13:38:13.100Z,101275.94
2022-11-12T13:40:44.587Z,101277.34
2022-11-12T13:43:19.420Z,101275.00
2022-11-12T13:45:51.152Z,101269.34
2022-11-12T13:48:25.999Z,101268.88
2022-11-12T13:50:56.597Z,101274.03
2022-11-12T13:53:28.267Z,101274.28
2022-11-12T13:55:56.782Z,101271.41
2022-11-12T13:58:30.343Z,101268.63
2022-11-12T14:00:59.976Z,101277.78
2022-11-12T14:03:31.354Z,101275.47
2022-11-12T14:06:06.166Z,101277.53
2022-11-12T14:09:07.174Z,101272.44
2022-11-12T14:11:55.720Z,101271.78
2022-11-12T14:14:35.621Z,101278.47
2022-11-12T14:17:22.030Z,101270.88
2022-11-12T14:20:04.446Z,101271.16
2022-11-12T14:22:40.041Z,101270.09
2022-11-12T14:25:18.360Z,101269.00
2022-11-12T14:27:46.541Z,101261.78
2022-11-12T14:30:20.757Z,101259.72
2022-11-12T14:32:51.018Z,101266.59
2022-11-12T14:35:35.216Z,101261.56
2022-11-12T14:38:13.500Z,101254.84
2022-11-12T14:40:49.181Z,101260.47
2022-11-12T14:43:27.355Z,101256.31
2022-11-12T14:45:56.864Z,101257.56
2022-11-12T14:48:24.816Z,101257.56
2022-11-12T14:50:58.736Z,101240.75
2022-11-12T14:53:29.751Z,101239.75
2022-11-12T14:56:02.177Z,101236.16
2022-11-12T14:58:30.279Z,101233.66
2022-11-12T15:00:58.043Z,101231.34
2022-11-12T15:03:32.836Z,101228.81
2022-11-12T15:06:10.246Z,101227.69
2022-11-12T15:08:39.848Z,101231.06
2022-11-12T15:11:23.055Z,101221.09
2022-11-12T15:13:53.619Z,101221.06
2022-11-12T15:16:24.286Z,101220.47
2022-11-12T15:19:06.831Z,101225.53
2022-11-12T15:21:35.266Z,101230.31
2022-11-12T15:24:07.954Z,101234.28
2022-11-12T15:26:38.493Z,101232.72
2022-11-12T15:29:16.102Z,101223.19
2022-11-12T15:31:46.357Z,101227.66
2022-11-12T15:34:27.187Z,101216.44
2022-11-12T15:36:55.383Z,101223.34
2022-11-12T15:39:24.575Z,101226.72
2022-11-12T15:42:00.181Z,101223.16
2022-11-12T15:44:32.318Z,101225.97
2022-11-12T15:47:00.645Z,101218.44
2022-11-12T15:49:28.353Z,101223.34
2022-11-12T15:51:56.010Z,101214.84
2022-11-12T15:54:23.602Z,101206.63
2022-11-12T15:56:51.619Z,101205.13
2022-11-12T15:59:20.779Z,101201.16
2022-11-12T16:01:48.427Z,101206.53
2022-11-12T16:04:15.984Z,101201.50
2022-11-12T16:06:43.590Z,101195.88
2022-11-12T16:09:11.165Z,101201.59
2022-11-12T16:11:39.017Z,101194.38
2022-11-12T16:14:12.026Z,101192.38
2022-11-12T16:16:40.968Z,101190.13
2022-11-12T16:19:16.198Z,101183.44
2022-11-12T16:21:43.787Z,101186.97
2022-11-12T16:24:11.514Z,101192.25
2022-11-12T16:26:39.309Z,101183.78
2022-11-12T16:29:12.915Z,101183.31
2022-11-12T16:31:44.408Z,101189.81
2022-11-12T16:34:12.369Z,101186.50
2022-11-12T16:36:42.024Z,101182.38
2022-11-12T16:39:14.155Z,101180.28
2022-11-12T16:41:42.025Z,101176.06
2022-11-12T16:44:09.664Z,101171.16
2022-11-12T16:46:40.332Z,101178.34
2022-11-12T16:49:12.817Z,101179.94
2022-11-12T16:51:40.468Z,101177.56
2022-11-12T16:54:09.307Z,101168.69
2022-11-12T16:56:37.589Z,101177.03
2022-11-12T16:59:05.565Z,101172.88
2022-11-12T17:01:34.350Z,101169.50
2022-11-12T17:04:01.975Z,101167.22
2022-11-12T17:06:36.581Z,101166.75
2022-11-12T17:09:05.398Z,101166.91
2022-11-12T17:11:33.379Z,101165.81
2022-11-12T17:14:01.277Z,101169.66
2022-11-12T17:16:29.521Z,101162.81
2022-11-12T17:18:58.801Z,101160.53
2022-11-12T17:21:26.475Z,101159.31
2022-11-12T17:23:55.976Z,101158.38
2022-11-12T17:26:23.761Z,101153.47
2022-11-12T17:28:55.699Z,101153.34
2022-11-12T17:31:27.946Z,101161.00
2022-11-12T17:33:55.537Z,101148.31
2022-11-12T17:36:25.405Z,101142.66
2022-11-12T17:38:57.573Z,101154.19
2022-11-12T17:41:25.922Z,101144.56
2022-11-12T17:43:55.297Z,101154.09
2022-11-12T17:46:22.920Z,101148.75
2022-11-12T17:48:50.650Z,101151.97
2022-11-12T17:51:20.608Z,101146.03
2022-11-12T17:53:49.036Z,101152.47
2022-11-12T17:56:19.902Z,101148.13
2022-11-12T17:58:48.428Z,101146.34
2022-11-12T18:01:18.602Z,101149.91
2022-11-12T18:03:50.347Z,101142.84
2022-11-12T18:06:19.989Z,101149.44
2022-11-12T18:08:47.745Z,101140.78
2022-11-12T18:11:16.552Z,101140.63
2022-11-12T18:13:45.651Z,101141.94
2022-11-12T18:16:19.297Z,101141.03
2022-11-12T18:18:47.230Z,101139.38
2022-11-12T18:21:15.482Z,101133.50
2022-11-12T18:23:45.233Z,101149.94
2022-11-12T18:26:15.098Z,101141.22
2022-11-12T18:28:43.044Z,101139.53
2022-11-12T18:31:13.853Z,101133.88
2022-11-12T18:33:41.857Z,101138.22
2022-11-12T18:36:12.160Z,101132.50
2022-11-12T18:38:39.723Z,101131.53
2022-11-12T18:41:08.989Z,101136.72
2022-11-12T18:43:37.181Z,101132.38
2022-11-12T18:46:06.226Z,101132.59
2022-11-12T18:48:37.482Z,101130.69
2022-11-12T18:51:07.293Z,101132.00
2022-11-12T18:53:35.484Z,101125.28
2022-11-12T18:56:05.018Z,101124.31
2022-11-12T18:58:35.300Z,101117.91
2022-11-12T19:01:04.868Z,101123.34
2022-11-12T19:03:32.491Z,101124.13
2022-11-12T19:06:02.508Z,101120.41
2022-11-12T19:08:30.113Z,101121.72
2022-11-12T19:10:58.604Z,101123.44
2022-11-12T19:13:26.835Z,101116.34
2022-11-12T19:15:55.083Z,101126.09
2022-11-12T19:18:22.948Z,101123.56
2022-11-12T19:20:50.606Z,101119.16
2022-11-12T19:23:19.556Z,101121.31
2022-11-12T19:25:47.115Z,101119.56
2022-11-12T19:28:14.653Z,101115.06
2022-11-12T19:30:42.219Z,101115.09
2022-11-12T19:33:09.794Z,101111.97
2022-11-12T19:35:40.212Z,101105.06
2022-11-12T19:38:08.017Z,101107.63
2022-11-12T19:40:37.220Z,101111.59
2022-11-12T19:43:04.920Z,101106.66
2022-11-12T19:45:32.473Z,101098.09
2022-11-12T19:48:00.054Z,101099.88
2022-11-12T19:50:27.910Z,101094.47
2022-11-12T19:52:55.805Z,101099.38
2022-11-12T19:55:25.642Z,101101.97
2022-11-12T19:57:55.042Z,101099.88
2022-11-12T20:00:23.053Z,101096.19
2022-11-12T20:02:51.055Z,101092.16
2022-11-12T20:05:18.982Z,101098.91
2022-11-12T20:07:49.454Z,101093.81
2022-11-12T20:10:18.225Z,101088.16
2022-11-12T20:12:46.594Z,101080.91
2022-11-12T20:15:15.736Z,101083.00
2022-11-12T20:17:43.428Z,101086.34
2022-11-12T20:20:12.001Z,101081.44
2022-11-12T20:22:39.662Z,101078.25
2022-11-12T20:25:07.755Z,101081.53
2022-11-12T20:27:35.600Z,101072.84
2022-11-12T20:30:03.478Z,101075.34
2022-11-12T20:32:32.654Z,101068.94
2022-11-12T20:35:00.433Z,101062.69
2022-11-12T20:37:28.116Z,101059.00
2022-11-12T20:39:55.881Z,101073.56
2022-11-12T20:42:23.545Z,101066.41
2022-11-12T20:44:51.241Z,101063.03
2022-11-12T20:47:19.071Z,101060.75
2022-11-12T20:49:48.446Z,101059.13
2022-11-12T20:52:16.172Z,101053.91
2022-11-12T20:54:44.184Z,101063.91
2022-11-12T20:57:11.973Z,101057.25
2022-11-12T20:59:41.190Z,101058.16
2022-11-12T21:02:10.568Z,101063.09
2022-11-12T21:04:38.701Z,101058.06
2022-11-12T21:07:07.809Z,101053.19
2022-11-12T21:09:36.700Z,101049.66
2022-11-12T21:12:04.875Z,101050.47
2022-11-12T21:14:32.644Z,101044.47
2022-11-12T21:17:00.314Z,101052.38
2022-11-12T21:19:28.026Z,101048.06
2022-11-12T21:21:55.733Z,101054.31
2022-11-12T21:24:24.826Z,101044.13
2022-11-12T21:26:52.468Z,101045.53
2022-11-12T21:29:20.380Z,101039.44
2022-11-12T21:31:48.148Z,101032.44
2022-11-12T21:34:15.834Z,101038.53
2022-11-12T21:36:43.377Z,101035.28
2022-11-12T21:39:11.953Z,101027.22
2022-11-12T21:41:40.912Z,101031.03
2022-11-12T21:44:08.738Z,101025.94
2022-11-12T21:46:37.514Z,101032.94
2022-11-12T21:49:05.461Z,101029.13
2022-11-12T21:51:34.690Z,101032.44
2022-11-12T21:54:04.264Z,101029.69
2022-11-12T21:56:33.338Z,101030.72
2022-11-12T21:59:03.965Z,101034.97
2022-11-12T22:01:33.459Z,101027.91
2022-11-12T22:04:01.463Z,101029.69
2022-11-12T22:06:30.798Z,101025.50
2022-11-12T22:08:59.163Z,101029.00
2022-11-12T22:11:28.036Z,101016.66
2022-11-12T22:13:55.875Z,101022.34
2022-11-12T22:16:26.420Z,101018.56
2022-11-12T22:18:55.775Z,101019.03
2022-11-12T22:21:24.909Z,101025.78
2022-11-12T22:23:52.987Z,101031.91
2022-11-12T22:26:22.737Z,101023.81
2022-11-12T22:28:50.424Z,101024.81
2022-11-12T22:31:20.081Z,101021.84
2022-11-12T22:33:49.353Z,101011.28
2022-11-12T22:36:20.288Z,101014.09
2022-11-12T22:38:49.260Z,101010.09
2022-11-12T22:41:18.640Z,100993.09
2022-11-12T22:43:48.514Z,100991.31
2022-11-12T22:46:18.408Z,100996.22
2022-11-12T22:48:46.236Z,100994.06
2022-11-12T22:51:17.710Z,100991.44
2022-11-12T22:53:45.627Z,100982.81
2022-11-12T22:56:15.043Z,100975.91
2022-11-12T22:58:44.142Z,100969.81
2022-11-12T23:01:19.272Z,100969.38
2022-11-12T23:03:46.921Z,100967.13
2022-11-12T23:06:17.331Z,100966.25
2022-11-12T23:08:45.552Z,100963.16
2022-11-12T23:11:15.293Z,100953.16
2022-11-12T23:13:43.276Z,100958.69
2022-11-12T23:16:13.460Z,100955.22
2022-11-12T23:18:42.059Z,100952.38
2022-11-12T23:21:11.923Z,100950.19
2022-11-12T23:23:40.871Z,100945.44
2022-11-12T23:26:11.539Z,100939.56
2022-11-12T23:28:40.361Z,100937.81
2022-11-12T23:31:15.895Z,100934.28
2022-11-12T23:33:45.692Z,100933.81
2022-11-12T23:36:14.001Z,100935.59
2022-11-12T23:38:43.381Z,100931.41
2022-11-12T23:41:12.641Z,100924.34
2022-11-12T23:43:40.631Z,100930.31
2022-11-12T23:46:08.301Z,100923.34
2022-11-12T23:48:37.061Z,100921.56
2022-11-12T23:51:06.856Z,100921.28
2022-11-12T23:53:35.665Z,100909.66
2022-11-12T23:56:05.936Z,100908.72
2022-11-12T23:58:33.884Z,100912.28
